EDMO

Oberpfaffenhofen Airport

Germany
TAF EDMO 260500Z 2606/2615 27010KT 9999 SCT020 BKN030
Issued Valid From Valid To
Apr-26 @ 05:00 UTC
(57 minutes ago)
Apr-26 @ 06:00 UTC
(in 3 minutes)
Apr-26 @ 15:00 UTC
(in 9 hours)
Apr-26 @ 06:00 to Apr-26 @ 15:00
TAF EDMO 260500Z 2606/2615 27010KT 9999 SCT020 BKN030
Wind Visibility Clouds
270° at 10 knots 10,000+ meters
  • Scattered at 2,000' AGL
  • Broken at 3,000' AGL
TAF EDMO 260500Z 2606/2615 27010KT 9999 SCT020 BKN030
Issued Apr-26 @ 05:00 UTC
(57 minutes ago)
Valid From Apr-26 @ 06:00 UTC
(in 3 minutes)
Valid To Apr-26 @ 15:00 UTC
(in 9 hours)
Apr-26 @ 06:00 - Apr-26 @ 15:00
Wind Visibility
270° at 10 knots 10,000+ meters
Clouds
  • Scattered at 2,000' AGL
  • Broken at 3,000' AGL